ADDS METAR Data INFO
IDs: Format: Raw Decoded Include TAF

Data at: 1556 UTC 12 Dec 2017

KASG 121548Z 34004G12KT 10SM SKC 01/M07 A3035
KASG 121448Z 36009KT 10SM SKC 00/M07 A3033
KASG 121348Z 34005KT 10SM SKC M02/M06 A3032
KASG 121248Z 33005KT 10SM SKC M02/M06 A3032
KASG 121148Z 32005KT 10SM SKC M01/M06 A3031
KASG 120248Z 32013G20KT 10SM SKC 10/M04 A3013
KASG 120148Z 33012G18KT 10SM SKC 11/M06 A3012
KASG 120048Z 33014G24KT 10SM SKC 12/M08 A3010
KASG 112348Z 31014G20KT 10SM SKC 14/M11 A3005
KASG 112248Z 29004G12KT 10SM SKC 15/M08 A3003
KASG 112148Z 31011G17KT 10SM SKC 16/M08 A3002
KASG 112048Z 29012G17KT 10SM SKC 18/M08 A3002
KASG 111948Z 31011G19KT 10SM SKC 19/M08 A3002
KASG 111848Z 28011KT 10SM SKC 19/M08 A3002
KASG 111748Z 26011G18KT 10SM SKC 18/M08 A3005
KASG 111648Z 24008G18KT 10SM SKC 16/M09 A3009
KASG 111548Z 24008G18KT 10SM SKC 14/M08 A3012
KASG 111448Z 24006KT 10SM SKC 10/M06 A3014
KASG 111348Z 20006KT 10SM SKC 01/M05 A3014
KASG 111248Z 23004KT 10SM SKC M01/M05 A3015
KASG 111148Z 00000KT 10SM SKC M02/M05 A3016